Доктор-авиапсихиатр (cal_len) wrote,
Доктор-авиапсихиатр
cal_len

Categories:

TAF UUDD жжот!!)))

TAF UUDD 231055Z 2312/2418 12008MPS 8000 BKN020 TEMPO 2312/2322 VRB17MPS 1200 TSRA SCT005 BKN020CB BECMG 2318/2320 18004MPS TEMPO 2322/2405 0400 FG SCT002

Расшифровка:

Кратковременные изменения погоды с 15:00 до 1:00 (12:00-22:00 UTC):
Ветер хрен поймешь куда, 17 м/сек
Видимость во всех направлениях 1200 метров
Будет грозовой дождь

Пруфлинк, если не верите)))
http://www.rtzi.ru/cgi-bin/metar/UUDD
Tags: АВИАЦИЯ, Домодедово, полёты, прикол
Subscribe

  • Спасибо, РХТУ! Вы - лучшие.

    И даже несмотря на отдельные частности, курс ANSYS от Специалиста и ПЛМ Урал не просто вернулся... он обрёл новые собственные формы и частоты,…

  • Машина времени в 1972 год

    Скажите, вы любите новогодние сказки? Ну, что за вопрос! Кто же их не любит. Чтобы весь мир большой и добрый, а ты с ладошку маленький, чтобы…

  • Callen v4.3: записки голодного до вдохновений

    На фото: первый российский предсерийный электромобиль Кама-1, изготовленный по революционной технологии цифровых двойников коллективом группы…

  • Post a new comment

    Error

    Anonymous comments are disabled in this journal

    default userpic

    Your reply will be screened

    Your IP address will be recorded 

  • 5 comments